Time;durP1;ratioP1;P1;durP2;ratioP2;P2;SDS_P1;SDS_P2;PMS_P1;PMS_P2;Temp;Humidity;BMP_temperature;BMP_pressure;BME280_temperature;BME280_humidity;BME280_pressure;Samples;Min_cycle;Max_cycle;Signal;HPM_P1;HPM_P2
2021/06/13 00:00:45;;;;;;;2.42;1.60;;;;;;;;;;5050204;28;20206;-46
2021/06/13 00:03:11;;;;;;;3.20;1.90;;;;;;;;;;5045062;28;20673;-47
2021/06/13 00:05:37;;;;;;;2.83;1.50;;;;;;;;;;5052250;28;20175;-47
2021/06/13 00:08:04;;;;;;;2.83;1.60;;;;;;;;;;5054398;28;20186;-47
2021/06/13 00:10:30;;;;;;;2.28;1.30;;;;;;;;;;5054325;28;20186;-47
2021/06/13 00:12:56;;;;;;;3.80;1.77;;;;;;;;;;5053789;28;20179;-47
2021/06/13 00:15:23;;;;;;;2.95;1.38;;;;;;;;;;5044542;28;20183;-45
2021/06/13 00:17:50;;;;;;;2.65;1.40;;;;;;;;;;5055008;28;20528;-47
2021/06/13 00:20:17;;;;;;;3.60;1.48;;;;;;;;;;5054708;28;20206;-47
2021/06/13 00:22:44;;;;;;;3.20;1.80;;;;;;;;;;5054582;28;20205;-46
2021/06/13 00:25:11;;;;;;;2.65;1.60;;;;;;;;;;5055081;28;20159;-47
2021/06/13 00:27:37;;;;;;;3.92;1.55;;;;;;;;;;5053048;28;20187;-47
2021/06/13 00:30:04;;;;;;;2.28;1.55;;;;;;;;;;5052697;28;20183;-47
2021/06/13 00:32:30;;;;;;;2.83;1.65;;;;;;;;;;5043604;28;20180;-47
2021/06/13 00:34:56;;;;;;;2.40;1.40;;;;;;;;;;5035029;28;20504;-46
2021/06/13 00:37:22;;;;;;;2.35;1.38;;;;;;;;;;5052347;28;20207;-47
2021/06/13 00:39:48;;;;;;;2.47;1.50;;;;;;;;;;5054653;28;20179;-46
2021/06/13 00:42:14;;;;;;;2.28;1.67;;;;;;;;;;5054025;28;20262;-47
2021/06/13 00:44:40;;;;;;;2.60;1.70;;;;;;;;;;5052054;28;20175;-47
2021/06/13 00:47:06;;;;;;;3.00;1.80;;;;;;;;;;5047151;28;20184;-46
2021/06/13 00:49:32;;;;;;;3.78;1.50;;;;;;;;;;5034784;28;20183;-47
2021/06/13 00:51:58;;;;;;;2.42;1.30;;;;;;;;;;5047994;28;20249;-47
2021/06/13 00:54:26;;;;;;;2.72;1.30;;;;;;;;;;5054669;28;20644;-46
2021/06/13 00:56:52;;;;;;;2.50;1.63;;;;;;;;;;5048635;28;20206;-47
2021/06/13 00:59:18;;;;;;;2.88;1.40;;;;;;;;;;5053903;28;20171;-46
2021/06/13 01:01:44;;;;;;;2.92;1.25;;;;;;;;;;5041307;28;20269;-47
2021/06/13 01:04:10;;;;;;;2.25;1.50;;;;;;;;;;5054442;28;20173;-47
2021/06/13 01:07:08;;;;;;;4.13;1.60;;;;;;;;;;5054649;28;20171;-47
2021/06/13 01:09:38;;;;;;;1.85;1.27;;;;;;;;;;5007760;28;20500;-47
2021/06/13 01:12:16;;;;;;;1.73;1.30;;;;;;;;;;5052986;28;20210;-47
2021/06/13 01:14:47;;;;;;;2.78;1.42;;;;;;;;;;5041802;28;20217;-47
2021/06/13 01:17:22;;;;;;;3.80;1.33;;;;;;;;;;5044464;28;20214;-47
2021/06/13 01:20:06;;;;;;;1.85;1.20;;;;;;;;;;5036817;28;20175;-47
2021/06/13 01:22:51;;;;;;;2.45;1.27;;;;;;;;;;5056508;28;20443;-46
2021/06/13 01:25:28;;;;;;;2.30;1.27;;;;;;;;;;5057472;28;20175;-46
2021/06/13 01:28:13;;;;;;;2.38;1.40;;;;;;;;;;5057740;28;20183;-47
2021/06/13 01:30:40;;;;;;;1.73;1.20;;;;;;;;;;5049729;28;20614;-47
2021/06/13 01:33:11;;;;;;;2.58;1.27;;;;;;;;;;5046072;28;20179;-47
2021/06/13 01:35:38;;;;;;;4.20;1.58;;;;;;;;;;5050738;28;20225;-47
2021/06/13 01:38:05;;;;;;;1.98;1.50;;;;;;;;;;5057954;28;20590;-47
2021/06/13 01:40:35;;;;;;;2.63;1.40;;;;;;;;;;5057308;28;20237;-47
2021/06/13 01:43:02;;;;;;;2.38;1.33;;;;;;;;;;5039031;28;20485;-47
2021/06/13 01:45:32;;;;;;;2.72;1.35;;;;;;;;;;5057196;28;20232;-47
2021/06/13 01:47:58;;;;;;;3.30;1.70;;;;;;;;;;5057325;28;20194;-47
2021/06/13 01:50:26;;;;;;;2.25;1.20;;;;;;;;;;5056992;28;20277;-47
2021/06/13 01:52:52;;;;;;;2.95;1.40;;;;;;;;;;5042323;28;20215;-47
2021/06/13 01:55:19;;;;;;;3.03;1.40;;;;;;;;;;5042993;28;20246;-47
2021/06/13 01:57:46;;;;;;;2.47;1.45;;;;;;;;;;5057852;28;20199;-46
2021/06/13 02:00:14;;;;;;;4.03;1.58;;;;;;;;;;5056906;28;20183;-46
2021/06/13 02:02:42;;;;;;;3.67;1.45;;;;;;;;;;5053282;28;20233;-46
2021/06/13 02:05:09;;;;;;;2.33;1.40;;;;;;;;;;5056821;28;20462;-46
2021/06/13 02:07:36;;;;;;;1.88;1.40;;;;;;;;;;5054842;28;20183;-47
2021/06/13 02:10:04;;;;;;;2.13;1.40;;;;;;;;;;5056161;28;20175;-46
2021/06/13 02:12:31;;;;;;;2.92;1.42;;;;;;;;;;5056549;28;20182;-47
2021/06/13 02:14:58;;;;;;;1.75;1.23;;;;;;;;;;5056961;28;20273;-46
2021/06/13 02:17:24;;;;;;;1.45;1.25;;;;;;;;;;5056743;28;20265;-47
2021/06/13 02:19:50;;;;;;;2.67;0.95;;;;;;;;;;5056743;28;20190;-47
2021/06/13 02:22:18;;;;;;;2.45;1.40;;;;;;;;;;5056126;28;20200;-47
2021/06/13 02:24:45;;;;;;;1.75;1.10;;;;;;;;;;5056922;28;20182;-47
2021/06/13 02:27:13;;;;;;;1.88;1.20;;;;;;;;;;5056967;28;20246;-47
2021/06/13 02:29:40;;;;;;;2.08;1.20;;;;;;;;;;5054864;28;20187;-46
2021/06/13 02:32:09;;;;;;;3.28;1.58;;;;;;;;;;5054093;28;20183;-47
2021/06/13 02:34:35;;;;;;;2.78;1.45;;;;;;;;;;5056986;28;20190;-46
2021/06/13 02:37:02;;;;;;;2.03;1.20;;;;;;;;;;5056702;28;20248;-47
2021/06/13 02:39:28;;;;;;;4.00;1.40;;;;;;;;;;5048384;28;20552;-46
2021/06/13 02:41:54;;;;;;;1.90;1.30;;;;;;;;;;5047766;28;20215;-47
2021/06/13 02:44:22;;;;;;;4.55;1.58;;;;;;;;;;5056168;28;20217;-47
2021/06/13 02:46:48;;;;;;;1.45;1.17;;;;;;;;;;5051761;28;20226;-47
2021/06/13 02:49:14;;;;;;;3.85;1.17;;;;;;;;;;5047753;28;20219;-47
2021/06/13 02:51:42;;;;;;;2.65;1.40;;;;;;;;;;5055151;28;20191;-47
2021/06/13 02:54:10;;;;;;;2.65;1.38;;;;;;;;;;5056589;28;20613;-47
2021/06/13 02:56:54;;;;;;;3.50;1.30;;;;;;;;;;5048588;28;20210;-46
2021/06/13 02:59:39;;;;;;;3.60;1.58;;;;;;;;;;5055953;28;20427;-47
2021/06/13 03:02:07;;;;;;;1.60;1.20;;;;;;;;;;5052814;28;20601;-47
2021/06/13 03:04:33;;;;;;;1.73;1.10;;;;;;;;;;5056379;28;20171;-47
2021/06/13 03:07:00;;;;;;;2.70;1.40;;;;;;;;;;5056488;28;20250;-47
2021/06/13 03:09:28;;;;;;;2.80;1.50;;;;;;;;;;5054114;28;20485;-47
2021/06/13 03:11:54;;;;;;;1.80;0.90;;;;;;;;;;5055508;28;20183;-47
2021/06/13 03:14:21;;;;;;;2.22;1.52;;;;;;;;;;5056026;28;20167;-46
2021/06/13 03:16:47;;;;;;;2.67;1.27;;;;;;;;;;5055920;28;20195;-47
2021/06/13 03:19:14;;;;;;;2.03;1.30;;;;;;;;;;5056142;28;20210;-46
2021/06/13 03:21:41;;;;;;;1.88;1.05;;;;;;;;;;5051584;28;20171;-47
2021/06/13 03:24:08;;;;;;;3.83;1.50;;;;;;;;;;5040849;28;20551;-47
2021/06/13 03:26:35;;;;;;;3.78;1.42;;;;;;;;;;5041878;28;20171;-46
2021/06/13 03:29:02;;;;;;;2.85;1.52;;;;;;;;;;5055219;28;20221;-47
2021/06/13 03:31:28;;;;;;;3.58;1.27;;;;;;;;;;5054723;28;20175;-47
2021/06/13 03:33:55;;;;;;;3.72;1.48;;;;;;;;;;5055657;28;20217;-47
2021/06/13 03:36:22;;;;;;;3.03;1.42;;;;;;;;;;5054999;28;20191;-46
2021/06/13 03:38:50;;;;;;;2.85;1.27;;;;;;;;;;5051862;28;20210;-47
2021/06/13 03:41:17;;;;;;;3.97;1.70;;;;;;;;;;5044708;28;20471;-47
2021/06/13 03:43:43;;;;;;;2.10;1.15;;;;;;;;;;5054373;28;20578;-46
2021/06/13 03:46:10;;;;;;;2.85;1.27;;;;;;;;;;5043937;28;20281;-47
2021/06/13 03:48:36;;;;;;;2.58;1.45;;;;;;;;;;5053437;28;20186;-47
2021/06/13 03:51:03;;;;;;;2.92;1.40;;;;;;;;;;5054785;28;20191;-46
2021/06/13 03:53:29;;;;;;;2.08;1.45;;;;;;;;;;5055667;28;20558;-47
2021/06/13 03:56:00;;;;;;;3.08;1.48;;;;;;;;;;5054153;28;20223;-47
2021/06/13 03:58:26;;;;;;;2.50;1.40;;;;;;;;;;5055315;28;20202;-47
2021/06/13 04:00:54;;;;;;;5.05;1.38;;;;;;;;;;5051993;28;20199;-46
2021/06/13 04:03:20;;;;;;;2.88;1.45;;;;;;;;;;5055403;28;20278;-49
2021/06/13 04:05:48;;;;;;;3.50;1.50;;;;;;;;;;5054660;28;20620;-46
2021/06/13 04:08:16;;;;;;;3.85;1.50;;;;;;;;;;5055381;28;20250;-46
2021/06/13 04:10:46;;;;;;;2.88;1.40;;;;;;;;;;5054214;28;20320;-47
2021/06/13 04:13:12;;;;;;;3.55;1.20;;;;;;;;;;5055029;28;20183;-46
2021/06/13 04:15:39;;;;;;;2.97;1.67;;;;;;;;;;5050698;28;20171;-47
2021/06/13 04:18:05;;;;;;;3.58;1.73;;;;;;;;;;5054974;28;20211;-47
2021/06/13 04:20:31;;;;;;;4.15;1.50;;;;;;;;;;5054127;28;20185;-47
2021/06/13 04:22:58;;;;;;;2.40;1.35;;;;;;;;;;5054608;28;20179;-47
2021/06/13 04:25:24;;;;;;;1.77;1.30;;;;;;;;;;5054644;28;20263;-46
2021/06/13 04:27:51;;;;;;;2.10;1.30;;;;;;;;;;5055003;28;20273;-47
2021/06/13 04:30:18;;;;;;;2.55;1.20;;;;;;;;;;5046573;28;20534;-47
2021/06/13 04:32:43;;;;;;;1.98;1.30;;;;;;;;;;5047130;28;20259;-47
2021/06/13 04:35:09;;;;;;;2.10;1.50;;;;;;;;;;5034801;28;20275;-47
2021/06/13 04:37:35;;;;;;;5.82;1.80;;;;;;;;;;5038265;28;20191;-47
2021/06/13 04:40:02;;;;;;;3.03;1.45;;;;;;;;;;5054581;28;20203;-46
2021/06/13 04:42:28;;;;;;;3.90;1.45;;;;;;;;;;5053368;28;20497;-46
2021/06/13 04:44:54;;;;;;;3.13;1.73;;;;;;;;;;5054136;28;20190;-47
2021/06/13 04:47:20;;;;;;;2.88;1.77;;;;;;;;;;5050390;28;20542;-47
2021/06/13 04:49:48;;;;;;;2.53;1.40;;;;;;;;;;5041917;28;20230;-47
2021/06/13 04:52:15;;;;;;;2.45;1.35;;;;;;;;;;5049712;28;20265;-46
2021/06/13 04:54:44;;;;;;;2.72;1.30;;;;;;;;;;5054000;28;20266;-49
2021/06/13 04:57:30;;;;;;;3.25;1.50;;;;;;;;;;5054458;28;20198;-47
2021/06/13 04:59:56;;;;;;;2.03;1.30;;;;;;;;;;5052141;28;20211;-49
2021/06/13 05:02:22;;;;;;;2.88;1.55;;;;;;;;;;5048574;28;20276;-47
2021/06/13 05:04:48;;;;;;;3.47;1.90;;;;;;;;;;5054013;28;20179;-53
2021/06/13 05:07:14;;;;;;;3.85;2.03;;;;;;;;;;5052895;28;20201;-48
2021/06/13 05:09:44;;;;;;;4.40;1.90;;;;;;;;;;5046480;28;20171;-50
2021/06/13 05:12:10;;;;;;;5.60;1.90;;;;;;;;;;5053736;28;20183;-46
2021/06/13 05:14:36;;;;;;;3.75;1.45;;;;;;;;;;5053725;28;20182;-44
2021/06/13 05:17:02;;;;;;;3.55;1.95;;;;;;;;;;5043027;28;20199;-45
2021/06/13 05:19:28;;;;;;;3.95;1.90;;;;;;;;;;5053599;28;20179;-46
2021/06/13 05:21:54;;;;;;;6.15;1.75;;;;;;;;;;5050580;28;20182;-46
2021/06/13 05:24:20;;;;;;;4.30;1.75;;;;;;;;;;5054318;28;20194;-46
2021/06/13 05:26:46;;;;;;;6.38;2.05;;;;;;;;;;5045192;28;20249;-46
2021/06/13 05:29:12;;;;;;;4.97;2.03;;;;;;;;;;5042078;28;20554;-46
2021/06/13 05:31:39;;;;;;;5.35;1.90;;;;;;;;;;5053442;28;20261;-46
2021/06/13 05:34:05;;;;;;;8.23;1.60;;;;;;;;;;5036463;28;20207;-45
2021/06/13 05:36:31;;;;;;;7.72;2.53;;;;;;;;;;5035168;28;20238;-46
2021/06/13 05:38:57;;;;;;;8.20;2.72;;;;;;;;;;5052665;28;20186;-46
2021/06/13 05:41:23;;;;;;;6.82;2.63;;;;;;;;;;5053692;28;20179;-45
2021/06/13 05:43:50;;;;;;;10.40;3.38;;;;;;;;;;5068733;28;20170;-46
2021/06/13 05:46:19;;;;;;;4.85;2.05;;;;;;;;;;5053412;28;20179;-46
2021/06/13 05:48:45;;;;;;;6.55;2.63;;;;;;;;;;5033961;28;20177;-46
2021/06/13 05:51:13;;;;;;;5.47;2.22;;;;;;;;;;5050685;28;20191;-46
2021/06/13 05:53:39;;;;;;;5.35;2.50;;;;;;;;;;5052140;28;20168;-46
2021/06/13 05:56:05;;;;;;;6.63;2.75;;;;;;;;;;5034055;28;20584;-45
2021/06/13 05:58:31;;;;;;;7.90;2.70;;;;;;;;;;5034132;28;20168;-46
2021/06/13 06:00:57;;;;;;;5.30;2.45;;;;;;;;;;5046985;28;20590;-46
2021/06/13 06:03:23;;;;;;;5.65;2.25;;;;;;;;;;5053507;28;20176;-46
2021/06/13 06:05:50;;;;;;;5.38;3.10;;;;;;;;;;5054609;28;20167;-46
2021/06/13 06:08:17;;;;;;;6.55;2.63;;;;;;;;;;5056302;28;20175;-45
2021/06/13 06:10:44;;;;;;;6.72;2.55;;;;;;;;;;5057228;28;20175;-46
2021/06/13 06:13:10;;;;;;;5.50;2.60;;;;;;;;;;5057018;28;20459;-46
2021/06/13 06:15:38;;;;;;;8.95;2.47;;;;;;;;;;5056751;28;20551;-46
2021/06/13 06:18:04;;;;;;;9.20;2.70;;;;;;;;;;5057348;28;20234;-46
2021/06/13 06:20:31;;;;;;;9.25;2.53;;;;;;;;;;5057070;28;20199;-46
2021/06/13 06:22:58;;;;;;;8.15;2.58;;;;;;;;;;5042832;28;20172;-45
2021/06/13 06:25:24;;;;;;;4.88;2.28;;;;;;;;;;5036500;28;20168;-46
2021/06/13 06:27:51;;;;;;;8.32;3.40;;;;;;;;;;5052236;28;20175;-46
2021/06/13 06:30:17;;;;;;;7.68;2.20;;;;;;;;;;5055234;28;20183;-46
2021/06/13 06:32:43;;;;;;;6.80;2.53;;;;;;;;;;5044326;28;20190;-46
2021/06/13 06:35:10;;;;;;;4.72;2.10;;;;;;;;;;5048127;28;20257;-46
2021/06/13 06:37:38;;;;;;;6.15;2.08;;;;;;;;;;5051601;28;20306;-46
2021/06/13 06:40:05;;;;;;;5.72;1.98;;;;;;;;;;5041238;28;20262;-46
2021/06/13 06:42:32;;;;;;;6.03;2.28;;;;;;;;;;5052049;28;20191;-46
2021/06/13 06:44:58;;;;;;;4.65;2.17;;;;;;;;;;5055797;28;20444;-46
2021/06/13 06:47:24;;;;;;;6.40;1.88;;;;;;;;;;5052248;28;20172;-46
2021/06/13 06:49:50;;;;;;;3.20;1.67;;;;;;;;;;5059413;28;20265;-46
2021/06/13 06:52:17;;;;;;;2.13;1.60;;;;;;;;;;5050739;28;20262;-46
2021/06/13 06:54:43;;;;;;;6.88;1.92;;;;;;;;;;5051601;28;20184;-46
2021/06/13 06:57:09;;;;;;;5.18;1.95;;;;;;;;;;5052121;28;20206;-46
2021/06/13 06:59:35;;;;;;;5.43;2.20;;;;;;;;;;5054906;28;20640;-46
2021/06/13 07:02:02;;;;;;;5.80;2.15;;;;;;;;;;5044856;28;20204;-46
2021/06/13 07:04:28;;;;;;;3.72;1.77;;;;;;;;;;5038357;28;20171;-46
2021/06/13 07:06:54;;;;;;;9.70;2.10;;;;;;;;;;5049834;28;20172;-46
2021/06/13 07:09:20;;;;;;;7.57;2.75;;;;;;;;;;5054282;28;20457;-46
2021/06/13 07:11:46;;;;;;;3.40;1.98;;;;;;;;;;5050032;28;20179;-46
2021/06/13 07:14:12;;;;;;;4.50;1.83;;;;;;;;;;5056118;28;20183;-46
2021/06/13 07:16:38;;;;;;;5.28;2.20;;;;;;;;;;5046799;28;20578;-46
2021/06/13 07:19:04;;;;;;;2.90;1.98;;;;;;;;;;5050083;28;20183;-46
2021/06/13 07:21:30;;;;;;;4.57;2.10;;;;;;;;;;5054538;28;20604;-46
2021/06/13 07:23:56;;;;;;;4.53;2.28;;;;;;;;;;5054323;28;20202;-46
2021/06/13 07:26:22;;;;;;;4.63;1.85;;;;;;;;;;5049044;28;20211;-46
2021/06/13 07:28:48;;;;;;;7.07;2.10;;;;;;;;;;5047894;28;20714;-46
2021/06/13 07:31:14;;;;;;;3.05;1.80;;;;;;;;;;5054867;28;20183;-46
2021/06/13 07:33:40;;;;;;;3.60;1.92;;;;;;;;;;5035992;28;20187;-46
2021/06/13 07:36:08;;;;;;;3.63;1.90;;;;;;;;;;5048834;28;20187;-46
2021/06/13 07:38:34;;;;;;;4.45;1.85;;;;;;;;;;5054362;28;20171;-46
2021/06/13 07:41:00;;;;;;;3.30;1.80;;;;;;;;;;5054972;28;20776;-46
2021/06/13 07:43:26;;;;;;;3.85;1.70;;;;;;;;;;5053616;28;20274;-45
2021/06/13 07:45:52;;;;;;;3.38;1.70;;;;;;;;;;5052606;28;20632;-46
2021/06/13 07:48:18;;;;;;;4.32;1.95;;;;;;;;;;5059631;28;20509;-46
2021/06/13 07:50:44;;;;;;;4.20;1.60;;;;;;;;;;5046811;28;20811;-46
2021/06/13 07:53:11;;;;;;;7.53;1.98;;;;;;;;;;5049780;28;20607;-46
2021/06/13 07:55:37;;;;;;;3.67;1.42;;;;;;;;;;5044778;28;20225;-46
2021/06/13 07:58:04;;;;;;;4.47;2.03;;;;;;;;;;5044955;28;20284;-46
2021/06/13 08:00:30;;;;;;;3.85;1.85;;;;;;;;;;5038279;28;20180;-46
2021/06/13 08:02:56;;;;;;;3.40;1.80;;;;;;;;;;5050018;28;20223;-45
2021/06/13 08:05:25;;;;;;;2.22;1.13;;;;;;;;;;5054363;28;20241;-46
2021/06/13 08:07:52;;;;;;;4.00;1.88;;;;;;;;;;5055318;28;20195;-46
2021/06/13 08:10:18;;;;;;;6.03;1.70;;;;;;;;;;5054007;28;20175;-46
2021/06/13 08:12:44;;;;;;;5.80;1.80;;;;;;;;;;5034805;28;20168;-46
2021/06/13 08:15:10;;;;;;;4.38;2.28;;;;;;;;;;5049621;28;20580;-46
2021/06/13 08:17:36;;;;;;;3.65;1.90;;;;;;;;;;5052665;28;20241;-46
2021/06/13 08:20:03;;;;;;;4.78;1.67;;;;;;;;;;5055185;28;20199;-46
2021/06/13 08:22:30;;;;;;;4.07;1.92;;;;;;;;;;5040952;28;20183;-46
2021/06/13 08:24:58;;;;;;;3.33;1.83;;;;;;;;;;5034794;28;20458;-46
2021/06/13 08:27:24;;;;;;;4.03;1.80;;;;;;;;;;5049572;28;20179;-46
2021/06/13 08:29:50;;;;;;;3.45;1.63;;;;;;;;;;5053993;28;20191;-46
2021/06/13 08:32:16;;;;;;;4.65;1.98;;;;;;;;;;5048446;28;20187;-46
2021/06/13 08:34:42;;;;;;;4.68;1.90;;;;;;;;;;5053767;28;20214;-46
2021/06/13 08:37:08;;;;;;;2.50;1.77;;;;;;;;;;5053605;28;20227;-46
2021/06/13 08:39:34;;;;;;;3.50;1.58;;;;;;;;;;5051569;28;20179;-46
2021/06/13 08:42:00;;;;;;;3.05;1.67;;;;;;;;;;5053787;28;20171;-46
2021/06/13 08:44:27;;;;;;;3.75;1.95;;;;;;;;;;5036959;28;20436;-46
2021/06/13 08:46:53;;;;;;;4.40;1.90;;;;;;;;;;5045875;28;20197;-46
2021/06/13 08:49:23;;;;;;;4.47;1.90;;;;;;;;;;5034788;28;20218;-46
2021/06/13 08:51:49;;;;;;;5.22;1.85;;;;;;;;;;5050260;28;20198;-46
2021/06/13 08:54:15;;;;;;;5.07;1.73;;;;;;;;;;5053633;28;20179;-46
2021/06/13 08:56:42;;;;;;;3.28;1.85;;;;;;;;;;5054222;28;20209;-46
2021/06/13 08:59:09;;;;;;;4.28;1.83;;;;;;;;;;5054477;28;20228;-46
2021/06/13 09:01:35;;;;;;;4.30;2.00;;;;;;;;;;5050935;28;20178;-46
2021/06/13 09:04:02;;;;;;;4.40;1.70;;;;;;;;;;5049823;28;20175;-46
2021/06/13 09:06:28;;;;;;;4.43;2.10;;;;;;;;;;5054402;28;20244;-46
2021/06/13 09:08:54;;;;;;;2.63;1.60;;;;;;;;;;5054425;28;20171;-46
2021/06/13 09:11:31;;;;;;;5.22;2.13;;;;;;;;;;5053577;28;20190;-46
2021/06/13 09:14:10;;;;;;;6.00;1.80;;;;;;;;;;5051976;28;20182;-46
2021/06/13 09:16:37;;;;;;;3.47;1.90;;;;;;;;;;5054284;28;20207;-46
2021/06/13 09:19:03;;;;;;;6.40;3.10;;;;;;;;;;5047359;28;20199;-46
2021/06/13 09:21:34;;;;;;;6.22;3.97;;;;;;;;;;5052703;28;20185;-46
2021/06/13 09:24:00;;;;;;;7.47;3.55;;;;;;;;;;5054340;28;20628;-46
2021/06/13 09:26:27;;;;;;;7.43;3.75;;;;;;;;;;5052306;28;20183;-46
2021/06/13 09:28:55;;;;;;;6.28;3.75;;;;;;;;;;5054587;28;20181;-46
2021/06/13 09:31:23;;;;;;;9.68;4.13;;;;;;;;;;5052493;28;20179;-46
2021/06/13 09:33:50;;;;;;;10.30;4.72;;;;;;;;;;5041031;28;20196;-46
2021/06/13 09:36:18;;;;;;;9.95;4.32;;;;;;;;;;5034400;28;20222;-46
2021/06/13 09:38:46;;;;;;;10.45;5.07;;;;;;;;;;5043105;28;20420;-45
2021/06/13 09:41:14;;;;;;;11.40;5.53;;;;;;;;;;5054645;28;20167;-46
2021/06/13 09:43:42;;;;;;;20.00;5.80;;;;;;;;;;5057443;28;20175;-46
2021/06/13 09:46:08;;;;;;;15.35;5.90;;;;;;;;;;5054867;28;20199;-46
2021/06/13 09:48:36;;;;;;;13.40;4.97;;;;;;;;;;5055827;28;20229;-46
2021/06/13 09:51:04;;;;;;;16.85;5.00;;;;;;;;;;5057447;28;20186;-46
2021/06/13 09:53:38;;;;;;;10.18;4.45;;;;;;;;;;5057774;28;20175;-46
2021/06/13 09:56:05;;;;;;;9.15;3.90;;;;;;;;;;5057580;28;20610;-46
2021/06/13 09:58:31;;;;;;;9.73;3.50;;;;;;;;;;5048681;28;20241;-46
2021/06/13 10:01:10;;;;;;;10.45;3.53;;;;;;;;;;5051566;28;20232;-46
2021/06/13 10:03:39;;;;;;;9.45;2.80;;;;;;;;;;5043795;28;20206;-46
2021/06/13 10:06:06;;;;;;;11.15;3.72;;;;;;;;;;5050479;28;20573;-46
2021/06/13 10:08:32;;;;;;;9.07;3.88;;;;;;;;;;5038430;28;20257;-46
2021/06/13 10:10:59;;;;;;;7.18;3.60;;;;;;;;;;5051964;28;20183;-46
2021/06/13 10:13:41;;;;;;;9.30;3.80;;;;;;;;;;5043165;28;20215;-46
2021/06/13 10:16:08;;;;;;;8.80;3.75;;;;;;;;;;5053066;28;20183;-46
2021/06/13 10:18:38;;;;;;;5.93;2.97;;;;;;;;;;5056792;28;20170;-46
2021/06/13 10:21:11;;;;;;;9.05;2.88;;;;;;;;;;5056739;28;20263;-46
2021/06/13 10:23:38;;;;;;;9.57;3.03;;;;;;;;;;5046025;28;20190;-46
2021/06/13 10:26:06;;;;;;;7.78;2.85;;;;;;;;;;5056427;28;20160;-46
2021/06/13 10:28:33;;;;;;;6.00;2.35;;;;;;;;;;5050473;28;20546;-46
2021/06/13 10:30:59;;;;;;;7.57;3.42;;;;;;;;;;5056321;28;20570;-46
2021/06/13 10:33:25;;;;;;;6.90;2.88;;;;;;;;;;5055187;28;20180;-46
2021/06/13 10:35:51;;;;;;;7.82;3.30;;;;;;;;;;5056942;28;20180;-46
2021/06/13 10:38:17;;;;;;;6.28;2.42;;;;;;;;;;5056566;28;20194;-46
2021/06/13 10:40:43;;;;;;;22.70;7.00;;;;;;;;;;5050044;28;20188;-45
2021/06/13 10:43:09;;;;;;;33.80;13.07;;;;;;;;;;5050755;28;20187;-46
2021/06/13 10:45:35;;;;;;;65.10;18.20;;;;;;;;;;5054540;28;20198;-46
2021/06/13 10:48:09;;;;;;;59.97;18.70;;;;;;;;;;5052196;28;20566;-45
2021/06/13 10:50:36;;;;;;;53.28;17.73;;;;;;;;;;5047134;28;20282;-46
2021/06/13 10:53:03;;;;;;;46.85;15.57;;;;;;;;;;5040627;28;20183;-46
2021/06/13 10:55:48;;;;;;;36.92;13.10;;;;;;;;;;5056679;28;20167;-46
2021/06/13 10:58:33;;;;;;;33.80;11.40;;;;;;;;;;5054931;28;20661;-46
2021/06/13 11:01:17;;;;;;;32.25;11.00;;;;;;;;;;5048346;28;20187;-46
2021/06/13 11:03:59;;;;;;;23.63;9.23;;;;;;;;;;5037637;28;20176;-46
2021/06/13 11:06:38;;;;;;;20.63;8.63;;;;;;;;;;5053204;28;20266;-46
2021/06/13 11:09:08;;;;;;;20.35;7.72;;;;;;;;;;5056439;28;20175;-46
2021/06/13 11:11:34;;;;;;;17.73;7.03;;;;;;;;;;5055509;28;20175;-46
2021/06/13 11:14:19;;;;;;;18.17;7.60;;;;;;;;;;5055573;28;20179;-46
2021/06/13 11:16:45;;;;;;;17.92;6.90;;;;;;;;;;5054972;28;20191;-46
2021/06/13 11:19:26;;;;;;;20.35;7.03;;;;;;;;;;5056356;28;20163;-46
2021/06/13 11:22:11;;;;;;;18.10;7.28;;;;;;;;;;5048022;28;20201;-46
2021/06/13 11:24:46;;;;;;;18.90;6.50;;;;;;;;;;5046666;28;20175;-46
2021/06/13 11:27:12;;;;;;;16.38;6.75;;;;;;;;;;5056360;28;20262;-46
2021/06/13 11:29:53;;;;;;;12.13;5.40;;;;;;;;;;5055475;28;20570;-46
2021/06/13 11:32:38;;;;;;;13.93;4.85;;;;;;;;;;5043951;28;20186;-46
2021/06/13 11:35:22;;;;;;;11.48;5.05;;;;;;;;;;5035993;28;20184;-46
2021/06/13 11:37:49;;;;;;;11.48;5.05;;;;;;;;;;5052602;28;20207;-46
2021/06/13 11:40:35;;;;;;;10.93;4.60;;;;;;;;;;5053270;28;20590;-46
2021/06/13 11:43:09;;;;;;;11.98;4.28;;;;;;;;;;5055332;28;20194;-46
2021/06/13 11:45:35;;;;;;;7.45;3.75;;;;;;;;;;5054761;28;20178;-46
2021/06/13 11:48:19;;;;;;;8.20;4.03;;;;;;;;;;5055412;28;20183;-46
2021/06/13 11:51:00;;;;;;;12.65;3.88;;;;;;;;;;5055077;28;20240;-46
2021/06/13 11:53:46;;;;;;;7.95;3.13;;;;;;;;;;5053774;28;20199;-46
2021/06/13 11:59:01;;;;;;;8.13;3.15;;;;;;;;;;5043352;28;20191;-45
2021/06/13 12:01:27;;;;;;;4.43;2.70;;;;;;;;;;5043904;28;20207;-46
2021/06/13 12:03:55;;;;;;;4.32;2.80;;;;;;;;;;5053158;28;20190;-46
2021/06/13 12:06:21;;;;;;;7.97;3.10;;;;;;;;;;5043486;28;20267;-46
2021/06/13 12:08:49;;;;;;;5.35;2.58;;;;;;;;;;5055175;28;20436;-46
2021/06/13 12:11:30;;;;;;;7.15;3.00;;;;;;;;;;5052778;28;20585;-46
2021/06/13 12:13:57;;;;;;;4.40;2.42;;;;;;;;;;5054517;28;20197;-46
2021/06/13 12:16:23;;;;;;;3.47;2.30;;;;;;;;;;5054734;28;20171;-46
2021/06/13 12:18:59;;;;;;;4.28;2.47;;;;;;;;;;5051682;28;20182;-46
2021/06/13 12:21:29;;;;;;;5.32;2.60;;;;;;;;;;5047702;28;20171;-46
2021/06/13 12:24:05;;;;;;;6.78;2.60;;;;;;;;;;5054720;28;20176;-46
2021/06/13 12:29:23;;;;;;;3.28;1.92;;;;;;;;;;5035194;28;20244;-46
2021/06/13 12:31:50;;;;;;;5.75;2.10;;;;;;;;;;5049917;28;20176;-46
2021/06/13 12:34:19;;;;;;;7.15;2.25;;;;;;;;;;5051628;28;20440;-46
2021/06/13 12:36:53;;;;;;;5.82;2.63;;;;;;;;;;5054899;28;20209;-46
2021/06/13 12:39:26;;;;;;;3.45;1.83;;;;;;;;;;5054662;28;20175;-46
2021/06/13 12:41:52;;;;;;;4.72;2.40;;;;;;;;;;5054444;28;20233;-46
2021/06/13 12:44:18;;;;;;;5.60;2.65;;;;;;;;;;5052743;28;20175;-46
2021/06/13 12:46:44;;;;;;;4.90;2.00;;;;;;;;;;5054482;28;20480;-46
2021/06/13 12:49:10;;;;;;;4.13;2.08;;;;;;;;;;5054929;28;20160;-46
2021/06/13 12:51:36;;;;;;;5.28;2.20;;;;;;;;;;5053140;28;20191;-46
2021/06/13 12:54:15;;;;;;;3.38;1.98;;;;;;;;;;5048867;28;20190;-46
2021/06/13 12:56:42;;;;;;;6.75;2.47;;;;;;;;;;5049174;28;20648;-46
2021/06/13 12:59:08;;;;;;;6.88;2.30;;;;;;;;;;5045249;28;20186;-46
2021/06/13 13:01:34;;;;;;;5.45;2.00;;;;;;;;;;5044160;28;20184;-46
2021/06/13 13:04:01;;;;;;;4.95;2.05;;;;;;;;;;5054359;28;20170;-46
2021/06/13 13:06:27;;;;;;;3.28;1.98;;;;;;;;;;5048587;28;20203;-46
2021/06/13 13:08:54;;;;;;;4.57;2.10;;;;;;;;;;5048146;28;20264;-46
2021/06/13 13:11:34;;;;;;;3.53;2.15;;;;;;;;;;5049129;28;20180;-46
2021/06/13 13:14:07;;;;;;;6.72;2.17;;;;;;;;;;5054509;28;20566;-46
2021/06/13 13:16:34;;;;;;;3.75;1.85;;;;;;;;;;5054963;28;20529;-46
2021/06/13 13:19:01;;;;;;;6.88;2.08;;;;;;;;;;5057918;28;20183;-46
2021/06/13 13:21:31;;;;;;;4.80;2.45;;;;;;;;;;5050507;28;20182;-46
2021/06/13 13:23:58;;;;;;;3.75;2.00;;;;;;;;;;5045755;28;20270;-46
2021/06/13 13:26:24;;;;;;;4.60;2.10;;;;;;;;;;5042301;28;20449;-46
2021/06/13 13:28:54;;;;;;;4.95;1.92;;;;;;;;;;5039253;28;20168;-46
2021/06/13 13:31:21;;;;;;;35.95;8.70;;;;;;;;;;5051325;28;20562;-46
2021/06/13 13:34:07;;;;;;;32.03;7.90;;;;;;;;;;5039220;28;20187;-46
2021/06/13 13:36:33;;;;;;;32.63;7.70;;;;;;;;;;5043197;28;20178;-46
2021/06/13 13:39:01;;;;;;;22.60;7.13;;;;;;;;;;5048981;28;20179;-46
2021/06/13 13:41:38;;;;;;;23.73;6.38;;;;;;;;;;5037554;28;20180;-46
2021/06/13 13:44:06;;;;;;;29.48;8.25;;;;;;;;;;5048458;28;20189;-46
2021/06/13 13:46:35;;;;;;;15.82;5.25;;;;;;;;;;5057558;28;20195;-46
2021/06/13 13:49:02;;;;;;;13.75;4.85;;;;;;;;;;5056415;28;20171;-46
2021/06/13 13:51:28;;;;;;;17.35;4.90;;;;;;;;;;5057196;28;20479;-46
2021/06/13 13:53:55;;;;;;;13.63;4.45;;;;;;;;;;5057790;28;20179;-46
2021/06/13 13:56:23;;;;;;;16.45;4.45;;;;;;;;;;5057011;28;20175;-46
2021/06/13 13:58:50;;;;;;;11.25;3.75;;;;;;;;;;5057113;28;20566;-46
2021/06/13 14:01:16;;;;;;;16.98;4.38;;;;;;;;;;5056878;28;20183;-46
2021/06/13 14:03:42;;;;;;;11.63;4.32;;;;;;;;;;5037762;28;20168;-46
2021/06/13 14:06:08;;;;;;;10.27;3.38;;;;;;;;;;5047377;28;20179;-46
2021/06/13 14:08:41;;;;;;;10.20;4.00;;;;;;;;;;5056847;28;20211;-46
2021/06/13 14:11:07;;;;;;;10.57;3.75;;;;;;;;;;5056762;28;20185;-46
2021/06/13 14:13:34;;;;;;;10.60;3.30;;;;;;;;;;5057565;28;20263;-46
2021/06/13 14:15:59;;;;;;;10.80;3.88;;;;;;;;;;5057018;28;20265;-46
2021/06/13 14:18:25;;;;;;;10.05;3.70;;;;;;;;;;5039966;28;20286;-46
2021/06/13 14:20:51;;;;;;;9.73;3.60;;;;;;;;;;5046135;28;20225;-46
2021/06/13 14:23:17;;;;;;;8.65;3.67;;;;;;;;;;5055212;28;20187;-46
2021/06/13 14:25:43;;;;;;;9.40;3.30;;;;;;;;;;5056861;28;20258;-46
2021/06/13 14:28:10;;;;;;;6.78;3.03;;;;;;;;;;5056206;28;20175;-46
2021/06/13 14:30:36;;;;;;;8.50;3.00;;;;;;;;;;5056589;28;20232;-46
2021/06/13 14:33:03;;;;;;;7.70;3.05;;;;;;;;;;5056794;28;20184;-46
2021/06/13 14:35:29;;;;;;;7.95;3.08;;;;;;;;;;5057089;28;20186;-46
2021/06/13 14:37:55;;;;;;;8.32;3.28;;;;;;;;;;5054893;28;20191;-46
2021/06/13 14:40:22;;;;;;;6.00;2.78;;;;;;;;;;5056333;28;20211;-46
2021/06/13 14:42:48;;;;;;;7.78;3.20;;;;;;;;;;5056828;28;20172;-46
2021/06/13 14:45:15;;;;;;;6.18;2.40;;;;;;;;;;5056540;28;20175;-46
2021/06/13 14:47:41;;;;;;;3.97;2.45;;;;;;;;;;5056674;28;20187;-46
2021/06/13 14:50:08;;;;;;;5.90;2.25;;;;;;;;;;5056618;28;20628;-46
2021/06/13 14:52:34;;;;;;;5.40;2.70;;;;;;;;;;5056281;28;20505;-46